Time;durP1;ratioP1;P1;durP2;ratioP2;P2;SDS_P1;SDS_P2;PMS_P1;PMS_P2;Temp;Humidity;BMP_temperature;BMP_pressure;BME280_temperature;BME280_humidity;BME280_pressure;Samples;Min_cycle;Max_cycle;Signal;HPM_P1;HPM_P2
2022/01/15 00:00:55;;;;;;;3.22;0.63;;;;;;;-2.64;81.46;96347.09;5077476;28;20040;-65
2022/01/15 00:03:21;;;;;;;2.03;0.50;;;;;;;-2.65;82.19;96342.78;5093015;28;20131;-64
2022/01/15 00:05:47;;;;;;;3.50;0.95;;;;;;;-2.64;83.23;96349.72;5042080;28;20505;-66
2022/01/15 00:08:13;;;;;;;3.53;0.90;;;;;;;-2.89;84.85;96319.59;5091125;28;20050;-63
2022/01/15 00:10:39;;;;;;;5.10;0.88;;;;;;;-2.76;87.41;96363.16;5074691;28;20139;-69
2022/01/15 00:13:10;;;;;;;3.85;1.05;;;;;;;-2.91;91.48;96359.38;5058042;28;20127;-64
2022/01/15 00:15:41;;;;;;;6.15;1.00;;;;;;;-2.84;94.02;96373.66;5091789;28;20040;-64
2022/01/15 00:18:15;;;;;;;4.45;1.02;;;;;;;-2.96;97.06;96374.88;5058313;28;20054;-66
2022/01/15 00:20:41;;;;;;;4.18;1.10;;;;;;;-2.87;98.28;96381.88;5058954;28;20117;-66
2022/01/15 00:23:07;;;;;;;5.07;1.00;;;;;;;-3.11;98.68;96341.97;5057920;28;20043;-65
2022/01/15 00:25:33;;;;;;;5.38;1.20;;;;;;;-2.94;98.37;96383.47;5074522;28;20051;-65
2022/01/15 00:28:00;;;;;;;5.35;1.20;;;;;;;-2.98;97.06;96368.88;5091180;28;20509;-66
2022/01/15 00:30:26;;;;;;;4.60;1.10;;;;;;;-2.96;95.60;96388.06;5092810;28;20047;-66
2022/01/15 00:32:53;;;;;;;5.38;1.25;;;;;;;-2.89;94.75;96394.41;5093763;28;20040;-63
2022/01/15 00:35:21;;;;;;;5.97;1.20;;;;;;;-2.89;92.97;96383.00;5060929;28;20496;-68
2022/01/15 00:37:46;;;;;;;6.55;1.15;;;;;;;-2.83;91.44;96403.56;5095158;28;20037;-66
2022/01/15 00:40:18;;;;;;;7.80;1.15;;;;;;;-3.03;92.09;96365.88;5094216;28;20100;-65
2022/01/15 00:42:45;;;;;;;3.08;0.80;;;;;;;-2.88;88.77;96388.16;5092249;28;20134;-66
2022/01/15 00:45:16;;;;;;;5.32;1.10;;;;;;;-2.86;88.36;96388.81;5092259;28;20052;-65
2022/01/15 00:47:43;;;;;;;2.13;0.60;;;;;;;-3.10;86.30;96356.88;5091289;28;20051;-64
2022/01/15 00:50:09;;;;;;;3.08;0.80;;;;;;;-2.86;85.35;96383.53;5040466;28;20162;-65
2022/01/15 00:52:35;;;;;;;3.05;0.80;;;;;;;-2.79;82.97;96394.34;5073938;28;20139;-65
2022/01/15 00:55:02;;;;;;;6.05;1.20;;;;;;;-2.85;82.55;96387.88;5091845;28;20039;-66
2022/01/15 00:57:29;;;;;;;3.28;0.70;;;;;;;-3.03;82.61;96377.25;5073675;28;20054;-67
2022/01/15 00:59:55;;;;;;;3.75;1.02;;;;;;;-2.92;82.14;96410.59;5090349;28;20093;-63
2022/01/15 01:02:21;;;;;;;3.90;0.70;;;;;;;-3.15;82.46;96379.25;5073680;28;20093;-64
2022/01/15 01:04:46;;;;;;;10.20;0.80;;;;;;;-2.85;81.92;96411.66;5073615;28;20115;-63
2022/01/15 01:07:12;;;;;;;3.30;0.80;;;;;;;-2.81;80.95;96412.19;5090213;28;20424;-64
2022/01/15 01:12:44;;;;;;;4.38;1.00;;;;;;;-2.72;80.45;96413.94;5075920;28;20051;-65
2022/01/15 01:23:10;;;;;;;3.70;0.60;;;;;;;-2.85;80.99;96385.22;5073108;28;20047;-62
2022/01/15 01:25:43;;;;;;;5.03;0.85;;;;;;;-2.62;81.82;96427.09;5040002;28;20040;-65
2022/01/15 01:28:19;;;;;;;5.55;1.00;;;;;;;-2.86;82.49;96394.13;5090826;28;20173;-63
2022/01/15 01:30:54;;;;;;;3.40;0.85;;;;;;;-2.70;83.94;96425.19;5089813;28;20142;-63
2022/01/15 01:36:03;;;;;;;13.75;1.30;;;;;;;-2.88;88.20;96438.38;5089749;28;20040;-65
2022/01/15 01:39:16;;;;;;;7.32;1.35;;;;;;;-2.85;88.71;96438.09;5058334;28;20071;-64
2022/01/15 01:41:21;;;;;;;3.15;0.90;;;;;;;-2.85;89.32;96442.50;5081546;28;20067;-63
2022/01/15 01:48:43;;;;;;;5.97;1.00;;;;;;;-2.89;91.57;96444.63;5090744;28;20054;-64
2022/01/15 01:51:20;;;;;;;4.10;0.90;;;;;;;-2.95;91.84;96443.41;5072766;28;20086;-66
2022/01/15 01:53:46;;;;;;;;;;;;;;;-2.86;91.93;96449.63;5091309;28;20032;-64
2022/01/15 01:56:12;;;;;;;6.57;1.20;;;;;;;-3.08;91.44;96415.66;5072818;28;20412;-64
2022/01/15 01:58:38;;;;;;;5.15;1.05;;;;;;;-2.95;90.71;96451.34;5072777;28;20177;-63
2022/01/15 02:01:04;;;;;;;5.40;1.10;;;;;;;-2.89;90.33;96447.25;5072800;28;20036;-64
2022/01/15 02:03:30;;;;;;;8.13;1.20;;;;;;;-3.04;89.69;96417.03;5090322;28;20050;-64
2022/01/15 02:05:56;;;;;;;5.40;0.95;;;;;;;-2.89;89.56;96457.84;5072969;28;20088;-64
2022/01/15 02:08:22;;;;;;;6.20;1.23;;;;;;;-2.89;90.05;96465.75;5073064;28;20058;-65
2022/01/15 02:10:47;;;;;;;4.72;1.20;;;;;;;-3.09;88.68;96440.41;5073254;28;20052;-65
2022/01/15 02:13:13;;;;;;;4.00;1.10;;;;;;;-2.95;87.91;96458.44;5074119;28;20044;-64
2022/01/15 02:15:39;;;;;;;6.05;1.10;;;;;;;-2.96;87.31;96457.59;5093028;28;20033;-65
2022/01/15 02:18:05;;;;;;;5.20;1.20;;;;;;;-3.10;86.70;96433.47;5092848;28;20043;-63
2022/01/15 02:25:54;;;;;;;3.97;1.00;;;;;;;-3.03;84.14;96419.53;5074937;28;20472;-65
2022/01/15 02:28:25;;;;;;;4.90;1.05;;;;;;;-2.73;83.11;96484.47;5072910;28;20046;-65
2022/01/15 02:31:01;;;;;;;4.32;0.70;;;;;;;-2.92;84.42;96437.00;5075080;28;20051;-64
2022/01/15 02:33:28;;;;;;;4.28;0.90;;;;;;;-2.93;85.95;96451.19;5090052;28;20526;-65
2022/01/15 02:35:54;;;;;;;4.00;1.10;;;;;;;-2.73;85.82;96467.78;5055763;28;20036;-64
2022/01/15 02:38:20;;;;;;;6.57;1.10;;;;;;;-2.75;86.38;96478.50;5055770;28;20064;-64
2022/01/15 02:40:46;;;;;;;5.45;1.30;;;;;;;-2.72;87.93;96491.41;5090811;28;20086;-64
2022/01/15 02:43:18;;;;;;;3.53;0.85;;;;;;;-2.70;88.77;96497.41;5075945;28;20138;-65
2022/01/15 02:45:46;;;;;;;6.43;1.00;;;;;;;-2.79;90.88;96487.69;5093978;28;20040;-65
2022/01/15 02:48:17;;;;;;;5.25;1.10;;;;;;;-2.68;91.48;96491.97;5060201;28;20446;-64
2022/01/15 02:50:45;;;;;;;5.35;1.30;;;;;;;-2.77;93.14;96498.97;5093372;28;20415;-67
2022/01/15 02:53:12;;;;;;;5.15;1.08;;;;;;;-2.79;94.54;96485.06;5094581;28;20142;-65
2022/01/15 02:55:44;;;;;;;4.43;1.05;;;;;;;-2.67;95.09;96499.75;5094787;28;20040;-65
2022/01/15 02:58:10;;;;;;;8.30;1.50;;;;;;;-2.85;95.64;96475.09;5095098;28;20052;-66
2022/01/15 03:00:36;;;;;;;5.53;1.30;;;;;;;-2.79;96.72;96500.91;5075824;28;20044;-66
2022/01/15 03:03:02;;;;;;;6.70;1.60;;;;;;;-2.77;97.11;96506.06;5075599;28;20147;-66
2022/01/15 03:05:28;;;;;;;5.25;1.10;;;;;;;-2.71;96.74;96513.41;5075506;28;20116;-64
2022/01/15 03:07:54;;;;;;;6.80;1.30;;;;;;;-2.79;97.46;96506.19;5092386;28;20584;-66
2022/01/15 03:10:19;;;;;;;5.43;1.40;;;;;;;-2.97;97.77;96481.53;5092438;28;20051;-66
2022/01/15 03:12:46;;;;;;;7.32;1.40;;;;;;;-2.77;97.50;96509.53;5092210;28;20063;-65
2022/01/15 03:15:18;;;;;;;7.50;1.50;;;;;;;-2.92;97.02;96495.16;5058561;28;20493;-66
2022/01/15 03:17:44;;;;;;;5.40;1.20;;;;;;;-2.86;97.31;96507.75;5092069;28;20040;-64
2022/01/15 03:20:11;;;;;;;6.05;1.52;;;;;;;-2.76;97.02;96516.50;5075319;28;20052;-66
2022/01/15 03:22:37;;;;;;;6.80;1.27;;;;;;;-2.72;96.40;96506.47;5092205;28;20079;-65
2022/01/15 03:25:04;;;;;;;4.40;1.13;;;;;;;-2.69;95.74;96514.94;5075409;28;20044;-65
2022/01/15 03:27:29;;;;;;;6.07;1.45;;;;;;;-2.75;96.61;96510.22;5075773;28;20453;-68
2022/01/15 03:29:55;;;;;;;5.57;1.20;;;;;;;-2.76;95.61;96520.94;5059951;28;20044;-67
2022/01/15 03:32:21;;;;;;;8.18;1.50;;;;;;;-2.62;95.61;96517.00;5076529;28;20504;-67
2022/01/15 03:34:47;;;;;;;4.35;1.02;;;;;;;-2.63;94.74;96515.31;5094708;28;20044;-66
2022/01/15 03:37:13;;;;;;;8.48;1.38;;;;;;;-2.63;94.05;96515.31;5074985;28;20146;-64
2022/01/15 03:39:39;;;;;;;4.72;1.15;;;;;;;-2.66;94.17;96521.75;5091675;28;20055;-66
2022/01/15 03:42:12;;;;;;;4.30;1.08;;;;;;;-2.62;94.94;96517.00;5058397;28;20071;-66
2022/01/15 03:44:48;;;;;;;4.60;1.10;;;;;;;-2.63;95.18;96526.75;5091838;28;20044;-65
2022/01/15 03:47:16;;;;;;;10.18;1.40;;;;;;;-2.61;96.27;96526.59;5093110;28;20064;-65
2022/01/15 03:49:43;;;;;;;6.25;1.60;;;;;;;-2.62;95.95;96543.44;5094234;28;20131;-65
2022/01/15 03:52:09;;;;;;;6.10;1.20;;;;;;;-2.59;96.66;96540.50;5093557;28;20062;-64
2022/01/15 03:54:35;;;;;;;4.70;1.17;;;;;;;-2.63;96.92;96536.47;5075359;28;20048;-65
2022/01/15 03:57:01;;;;;;;5.47;1.58;;;;;;;-2.69;96.81;96522.84;5075806;28;20040;-66
2022/01/15 03:59:29;;;;;;;4.30;0.98;;;;;;;-2.61;96.77;96537.16;5092201;28;20040;-65
2022/01/15 04:01:55;;;;;;;4.10;1.10;;;;;;;-2.60;96.59;96536.16;5093126;28;20402;-65
2022/01/15 04:04:21;;;;;;;5.95;1.27;;;;;;;-2.72;96.63;96520.50;5091382;28;20044;-66
2022/01/15 04:06:47;;;;;;;6.38;1.25;;;;;;;-2.88;96.68;96512.38;5091617;28;20138;-65
2022/01/15 04:09:13;;;;;;;6.43;1.50;;;;;;;-2.71;97.55;96537.19;5058126;28;20496;-64
2022/01/15 04:11:39;;;;;;;5.40;1.20;;;;;;;-2.69;97.22;96548.47;5091800;28;20048;-67
2022/01/15 04:14:06;;;;;;;6.78;1.55;;;;;;;-2.76;97.47;96550.84;5074655;28;20584;-66
2022/01/15 04:16:32;;;;;;;6.25;1.38;;;;;;;-2.75;97.98;96544.56;5093275;28;20044;-64
2022/01/15 04:18:59;;;;;;;5.95;1.40;;;;;;;-2.75;97.93;96555.16;5092391;28;20051;-65
2022/01/15 04:21:25;;;;;;;5.65;1.35;;;;;;;-2.75;98.39;96552.50;5093099;28;20043;-66
2022/01/15 04:23:52;;;;;;;6.35;1.20;;;;;;;-3.02;97.11;96518.97;5074528;28;20476;-63
2022/01/15 04:26:22;;;;;;;5.10;1.35;;;;;;;-2.73;97.68;96562.97;5092667;28;20040;-65
2022/01/15 04:28:49;;;;;;;22.27;2.08;;;;;;;-2.86;98.29;96544.75;5074997;28;20052;-65
2022/01/15 04:31:16;;;;;;;6.90;1.35;;;;;;;-2.83;98.32;96549.75;5092271;28;20044;-66
2022/01/15 04:33:42;;;;;;;5.18;1.20;;;;;;;-2.80;99.24;96567.16;5073985;28;20184;-65
2022/01/15 04:36:09;;;;;;;6.50;1.30;;;;;;;-3.08;100.00;96535.38;5074045;28;20138;-67
2022/01/15 04:38:37;;;;;;;4.93;1.50;;;;;;;-3.01;100.00;96551.50;5092842;28;20538;-65
2022/01/15 04:41:06;;;;;;;5.22;0.95;;;;;;;-2.85;100.00;96580.81;5091918;28;20189;-64
2022/01/15 04:43:32;;;;;;;4.50;1.10;;;;;;;-2.88;100.00;96586.38;5093247;28;20047;-66
2022/01/15 04:45:58;;;;;;;6.75;1.20;;;;;;;-2.88;99.47;96591.66;5075719;28;20110;-65
2022/01/15 04:48:24;;;;;;;7.20;1.40;;;;;;;-2.92;99.15;96579.72;5094649;28;20449;-67
2022/01/15 04:50:50;;;;;;;4.00;1.00;;;;;;;-3.04;97.63;96567.63;5092415;28;20071;-67
2022/01/15 04:53:16;;;;;;;3.17;1.00;;;;;;;-3.05;96.17;96544.84;5092910;28;20513;-66
2022/01/15 04:55:42;;;;;;;3.92;1.08;;;;;;;-2.81;95.90;96592.75;5090769;28;20044;-66
2022/01/15 04:58:08;;;;;;;5.80;1.38;;;;;;;-2.85;95.56;96564.94;5091716;28;20054;-66
2022/01/15 05:00:34;;;;;;;3.15;1.00;;;;;;;-2.79;95.82;96601.34;5073735;28;20044;-67
2022/01/15 05:03:01;;;;;;;5.93;1.30;;;;;;;-2.88;95.33;96596.13;5073095;28;20066;-64
2022/01/15 05:05:28;;;;;;;4.78;1.08;;;;;;;-2.88;95.58;96607.53;5091777;28;20040;-64
2022/01/15 05:07:55;;;;;;;4.25;1.20;;;;;;;-2.88;96.07;96611.97;5092531;28;20044;-65
2022/01/15 05:10:26;;;;;;;8.65;1.33;;;;;;;-2.83;96.34;96621.13;5090724;28;20052;-65
2022/01/15 05:12:55;;;;;;;6.10;1.13;;;;;;;-2.83;95.95;96621.13;5090133;28;20044;-65
2022/01/15 05:15:21;;;;;;;3.38;1.00;;;;;;;-2.87;95.32;96619.75;5073443;28;20071;-66
2022/01/15 05:17:47;;;;;;;4.32;1.38;;;;;;;-2.77;95.13;96639.06;5089871;28;20044;-66
2022/01/15 05:20:17;;;;;;;9.13;1.17;;;;;;;-2.81;95.94;96640.34;5089968;28;20043;-66
2022/01/15 05:22:44;;;;;;;5.60;1.05;;;;;;;-2.79;95.28;96645.47;5089934;28;20476;-67
2022/01/15 05:25:13;;;;;;;5.50;1.33;;;;;;;-2.96;95.63;96615.34;5073046;28;20035;-66
2022/01/15 05:27:40;;;;;;;6.15;1.40;;;;;;;-2.84;95.76;96640.63;5073306;28;20078;-66
2022/01/15 05:30:07;;;;;;;6.85;1.52;;;;;;;-2.75;95.71;96658.25;5074284;28;20055;-65
2022/01/15 05:32:33;;;;;;;5.50;1.38;;;;;;;-2.76;95.85;96669.81;5091601;28;20051;-66
2022/01/15 05:35:00;;;;;;;5.90;1.52;;;;;;;-3.01;96.28;96638.69;5092040;28;20039;-66
2022/01/15 05:37:27;;;;;;;4.00;1.25;;;;;;;-2.80;95.24;96668.44;5075823;28;20071;-66
2022/01/15 05:39:53;;;;;;;6.50;1.30;;;;;;;-2.74;95.27;96680.25;5075468;28;20114;-66
2022/01/15 05:42:19;;;;;;;4.00;1.10;;;;;;;-2.74;95.06;96681.09;5058616;28;20040;-67
2022/01/15 05:44:46;;;;;;;4.97;1.20;;;;;;;-2.72;95.11;96696.78;5090707;28;20397;-66
2022/01/15 05:47:11;;;;;;;6.28;1.55;;;;;;;-2.82;94.88;96680.94;5055894;28;20089;-67
2022/01/15 05:49:37;;;;;;;4.80;1.40;;;;;;;-2.71;94.54;96693.16;5056821;28;20060;-67
2022/01/15 05:52:04;;;;;;;4.18;1.10;;;;;;;-2.66;93.33;96701.53;5055841;28;20092;-66
2022/01/15 05:54:30;;;;;;;6.15;1.42;;;;;;;-2.62;92.89;96712.66;5090941;28;20044;-67
2022/01/15 05:56:55;;;;;;;5.13;1.10;;;;;;;-2.72;92.48;96697.63;5039410;28;20392;-65
2022/01/15 05:59:21;;;;;;;4.75;1.20;;;;;;;-2.67;92.00;96700.69;5055856;28;20039;-66
2022/01/15 06:01:47;;;;;;;7.35;1.58;;;;;;;-2.54;92.67;96712.78;5089277;28;20168;-67
2022/01/15 06:04:13;;;;;;;6.80;1.90;;;;;;;-2.50;91.20;96711.50;5089328;28;20538;-67
2022/01/15 06:06:39;;;;;;;5.25;1.40;;;;;;;-2.47;91.03;96732.38;5072836;28;20063;-66
2022/01/15 06:09:05;;;;;;;5.63;1.33;;;;;;;-2.65;90.25;96702.34;5089111;28;20086;-67
2022/01/15 06:11:34;;;;;;;6.18;1.40;;;;;;;-2.49;90.59;96729.03;5039315;28;20079;-66
2022/01/15 06:14:00;;;;;;;4.38;1.50;;;;;;;-2.50;91.12;96735.31;5089224;28;20044;-66
2022/01/15 06:16:26;;;;;;;5.30;1.50;;;;;;;-2.50;90.41;96730.84;5092386;28;20062;-66
2022/01/15 06:18:51;;;;;;;9.82;1.67;;;;;;;-2.46;90.50;96734.03;5093456;28;20072;-66
2022/01/15 06:21:17;;;;;;;6.65;1.50;;;;;;;-2.70;91.36;96695.69;5076677;28;20067;-66
2022/01/15 06:23:43;;;;;;;5.70;1.30;;;;;;;-2.37;90.27;96759.66;5060170;28;20051;-66
2022/01/15 06:26:09;;;;;;;6.18;1.58;;;;;;;-2.52;90.16;96724.06;5059852;28;20138;-67
2022/01/15 06:28:35;;;;;;;3.97;1.05;;;;;;;-2.47;90.45;96742.97;5059942;28;20063;-67
2022/01/15 06:31:01;;;;;;;4.25;1.15;;;;;;;-2.34;89.77;96766.44;5059907;28;20073;-67
2022/01/15 06:33:27;;;;;;;6.30;1.30;;;;;;;-2.31;89.77;96763.53;5076809;28;20154;-67
2022/01/15 06:35:52;;;;;;;5.28;1.50;;;;;;;-2.33;89.17;96755.75;5076654;28;20500;-67
2022/01/15 06:38:18;;;;;;;4.82;1.20;;;;;;;-2.33;90.57;96774.25;5060040;28;20054;-67
2022/01/15 06:40:44;;;;;;;8.60;1.70;;;;;;;-2.25;91.47;96777.03;5059464;28;20062;-67
2022/01/15 06:43:10;;;;;;;8.00;1.40;;;;;;;-2.38;91.32;96784.41;5059534;28;20495;-66
2022/01/15 06:45:36;;;;;;;5.10;1.20;;;;;;;-2.26;92.88;96799.19;5092923;28;20049;-67
2022/01/15 06:48:03;;;;;;;7.95;1.35;;;;;;;-2.29;92.52;96795.97;5076602;28;20044;-67
2022/01/15 06:50:29;;;;;;;7.60;1.38;;;;;;;-2.29;93.18;96804.75;5094011;28;20048;-66
2022/01/15 06:52:56;;;;;;;5.45;1.38;;;;;;;-2.29;93.51;96810.03;5076385;28;20036;-66
2022/01/15 06:55:22;;;;;;;6.13;1.65;;;;;;;-2.33;94.12;96782.19;5060222;28;20082;-66
2022/01/15 06:57:48;;;;;;;4.82;1.20;;;;;;;-2.15;93.30;96818.53;5061359;28;20083;-66
2022/01/15 07:00:15;;;;;;;7.53;1.67;;;;;;;-2.15;93.24;96813.22;5094596;28;20120;-67
2022/01/15 07:02:41;;;;;;;7.53;1.50;;;;;;;-2.21;93.34;96815.44;5078670;28;20040;-66
2022/01/15 07:05:08;;;;;;;4.28;1.30;;;;;;;-2.32;92.79;96798.91;5045369;28;20144;-67
2022/01/15 07:07:34;;;;;;;6.88;1.50;;;;;;;-2.31;92.67;96806.69;5095933;28;20047;-67
2022/01/15 07:10:00;;;;;;;5.28;1.20;;;;;;;-2.13;92.97;96835.06;5095310;28;20492;-67
2022/01/15 07:12:26;;;;;;;7.97;1.90;;;;;;;-2.23;92.74;96830.66;5077652;28;20098;-67
2022/01/15 07:14:52;;;;;;;5.90;1.70;;;;;;;-2.10;92.21;96835.63;5060961;28;20039;-68
2022/01/15 07:17:18;;;;;;;7.55;1.80;;;;;;;-2.19;91.42;96839.97;5060697;28;20032;-67
2022/01/15 07:19:44;;;;;;;8.13;1.73;;;;;;;-2.15;91.34;96837.88;5061110;28;20086;-67
2022/01/15 07:22:10;;;;;;;4.97;1.50;;;;;;;-2.19;89.91;96837.31;5077126;28;20075;-67
2022/01/15 07:24:36;;;;;;;8.02;1.58;;;;;;;-2.05;89.65;96859.00;5060666;28;20416;-68
2022/01/15 07:27:03;;;;;;;8.32;1.50;;;;;;;-2.02;90.02;96848.16;5076107;28;20043;-68
2022/01/15 07:29:30;;;;;;;4.93;1.20;;;;;;;-1.85;88.23;96846.59;5060471;28;20056;-68
2022/01/15 07:31:56;;;;;;;4.88;1.38;;;;;;;-2.10;87.86;96808.34;5076543;28;20040;-68
2022/01/15 07:34:22;;;;;;;9.85;1.58;;;;;;;-1.76;87.33;96857.13;5063419;28;20070;-69
2022/01/15 07:36:54;;;;;;;7.10;1.80;;;;;;;-1.76;87.40;96857.13;5036512;28;20066;-71
2022/01/15 07:39:20;;;;;;;9.18;1.80;;;;;;;-1.73;87.40;96864.81;5055379;28;20794;-71
2022/01/15 07:41:47;;;;;;;5.28;1.35;;;;;;;-1.78;87.06;96855.63;5052360;28;20043;-78
2022/01/15 07:44:13;;;;;;;7.32;1.77;;;;;;;-1.62;86.92;96860.31;5059713;28;20052;-73
2022/01/15 07:46:39;;;;;;;5.35;1.40;;;;;;;-1.81;86.30;96846.16;5042425;28;20438;-67
2022/01/15 07:49:04;;;;;;;4.30;1.02;;;;;;;-1.76;85.40;96880.97;5062880;28;20075;-70
2022/01/15 07:51:30;;;;;;;4.50;1.13;;;;;;;-1.85;85.24;96887.13;5054620;28;20220;-69
2022/01/15 07:53:56;;;;;;;4.13;1.23;;;;;;;-1.88;86.23;96889.22;5052334;28;20036;-69
2022/01/15 07:56:22;;;;;;;5.82;1.40;;;;;;;-1.91;86.95;96900.09;5053378;28;20658;-70
2022/01/15 07:58:48;;;;;;;9.68;1.20;;;;;;;-1.94;87.58;96887.97;5011632;28;20031;-70
2022/01/15 08:01:14;;;;;;;4.00;1.10;;;;;;;-1.78;86.91;96914.72;5093836;28;20060;-69
2022/01/15 08:03:40;;;;;;;6.53;1.27;;;;;;;-1.86;87.12;96906.66;5070348;28;20038;-71
2022/01/15 08:06:07;;;;;;;4.22;1.10;;;;;;;-1.77;86.68;96913.72;5078244;28;20044;-72
2022/01/15 08:08:33;;;;;;;8.10;1.20;;;;;;;-1.86;87.29;96905.81;5029101;28;20067;-68
2022/01/15 08:10:59;;;;;;;6.32;1.27;;;;;;;-2.07;88.37;96890.09;5045582;28;20418;-71
2022/01/15 08:13:26;;;;;;;4.75;1.15;;;;;;;-2.02;89.87;96911.66;5055996;28;20045;-72
2022/01/15 08:15:52;;;;;;;8.45;1.33;;;;;;;-1.84;90.12;96931.16;5071363;28;20042;-71
2022/01/15 08:18:21;;;;;;;7.85;1.55;;;;;;;-1.87;89.49;96941.19;5067547;28;20048;-69
2022/01/15 08:20:49;;;;;;;4.30;1.00;;;;;;;-1.80;90.07;96921.97;5023798;28;20047;-69
2022/01/15 08:23:15;;;;;;;5.85;1.40;;;;;;;-1.75;89.29;96940.91;5081210;28;20206;-69
2022/01/15 08:25:41;;;;;;;9.70;1.38;;;;;;;-1.77;90.35;96940.22;5074260;28;20143;-73
2022/01/15 08:28:06;;;;;;;5.93;1.30;;;;;;;-1.80;90.12;96947.59;5041902;28;20126;-70
2022/01/15 08:30:33;;;;;;;9.02;1.60;;;;;;;-1.56;90.47;96955.09;5040613;28;20508;-73
2022/01/15 08:32:59;;;;;;;8.77;1.20;;;;;;;-1.77;90.57;96968.50;5043704;28;20045;-69
2022/01/15 08:35:25;;;;;;;5.28;1.50;;;;;;;-1.74;91.84;96966.41;4975585;28;20052;-71
2022/01/15 08:37:50;;;;;;;5.93;1.65;;;;;;;-2.10;94.78;96935.38;5044671;28;20053;-69
2022/01/15 08:40:20;;;;;;;9.80;1.58;;;;;;;-1.78;95.24;96958.91;5042132;28;20412;-69
2022/01/15 08:42:46;;;;;;;8.00;1.50;;;;;;;-1.97;94.84;96960.59;5035454;28;20440;-69
2022/01/15 08:45:14;;;;;;;6.57;1.50;;;;;;;-1.92;92.95;96976.03;5026827;28;20144;-72
2022/01/15 08:47:40;;;;;;;11.70;1.70;;;;;;;-1.89;92.46;96982.88;5044179;28;20033;-69
2022/01/15 08:50:09;;;;;;;7.13;1.35;;;;;;;-1.82;89.64;96974.22;5027204;28;20127;-69
2022/01/15 08:52:35;;;;;;;5.72;1.65;;;;;;;-1.81;87.57;96977.72;5012626;28;20036;-69
2022/01/15 08:55:03;;;;;;;6.78;1.40;;;;;;;-1.71;84.90;96989.97;5042697;28;20053;-69
2022/01/15 08:57:29;;;;;;;7.43;1.85;;;;;;;-1.63;84.91;96980.50;5048271;28;20442;-69
2022/01/15 08:59:55;;;;;;;9.68;1.40;;;;;;;-1.59;82.99;96993.31;5011671;28;20132;-69
2022/01/15 09:02:21;;;;;;;7.97;1.50;;;;;;;-1.63;81.77;96989.28;5042491;28;20048;-69
2022/01/15 09:04:46;;;;;;;10.32;1.60;;;;;;;-1.67;81.05;96971.16;5012251;28;20055;-70
2022/01/15 09:07:13;;;;;;;5.20;1.33;;;;;;;-1.47;82.21;97001.94;5031616;28;20049;-69
2022/01/15 09:09:40;;;;;;;4.70;1.30;;;;;;;-1.63;79.66;96986.63;5045844;28;20049;-69
2022/01/15 09:12:06;;;;;;;6.28;1.33;;;;;;;-1.54;79.60;97017.53;5031507;28;20136;-69
2022/01/15 09:14:32;;;;;;;6.03;1.30;;;;;;;-1.70;79.73;96991.63;5029856;28;20500;-70
2022/01/15 09:16:58;;;;;;;7.05;1.58;;;;;;;-1.50;78.85;97008.38;5042881;28;20056;-70
2022/01/15 09:19:24;;;;;;;8.00;1.42;;;;;;;-1.49;78.37;97014.50;5000072;28;20620;-69
2022/01/15 09:21:49;;;;;;;4.35;1.08;;;;;;;-1.49;77.42;97009.19;5001422;28;20037;-69
2022/01/15 09:24:15;;;;;;;5.55;1.33;;;;;;;-1.59;77.82;97008.38;5012440;28;20328;-74
2022/01/15 09:32:05;;;;;;;4.65;1.35;;;;;;;-1.45;79.29;97013.22;5026603;28;20045;-72
2022/01/15 09:34:34;;;;;;;5.70;1.35;;;;;;;-1.52;78.94;97044.75;5034596;28;20198;-70
2022/01/15 09:37:01;;;;;;;5.55;1.52;;;;;;;-1.34;79.65;97059.94;5035693;28;20145;-73
2022/01/15 09:39:29;;;;;;;5.47;1.25;;;;;;;-1.42;78.70;97036.78;5034074;28;20045;-70
2022/01/15 09:41:55;;;;;;;6.68;1.23;;;;;;;-1.05;80.50;97081.09;5035624;28;20045;-70
2022/01/15 09:44:23;;;;;;;4.82;1.30;;;;;;;-1.53;84.50;97050.19;5040710;28;20049;-70
2022/01/15 09:46:50;;;;;;;6.53;1.58;;;;;;;-1.74;87.20;97061.75;5032506;28;20045;-70
2022/01/15 09:49:17;;;;;;;6.13;1.92;;;;;;;-1.83;89.15;97053.78;5033231;28;20048;-71
2022/01/15 09:51:45;;;;;;;6.32;1.33;;;;;;;-1.50;88.83;97084.31;5033991;28;20052;-69
2022/01/15 09:54:14;;;;;;;6.07;1.50;;;;;;;-1.29;87.32;97090.31;5058739;28;20591;-71
2022/01/15 09:56:40;;;;;;;6.45;1.35;;;;;;;-1.21;85.83;97092.25;5034733;28;20132;-72
2022/01/15 09:59:05;;;;;;;7.97;1.77;;;;;;;-1.08;84.13;97092.00;5043578;28;22905;-73
2022/01/15 10:01:31;;;;;;;5.13;1.42;;;;;;;-1.08;82.64;97081.38;4998714;28;20445;-76
2022/01/15 10:03:59;;;;;;;6.63;1.40;;;;;;;-1.42;84.01;97078.34;5025779;28;20477;-72
2022/01/15 10:06:25;;;;;;;6.13;1.60;;;;;;;-1.59;85.44;97061.34;5032418;28;20049;-69
2022/01/15 10:09:04;;;;;;;15.48;2.85;;;;;;;-1.52;86.61;97104.84;5032271;28;20045;-70
2022/01/15 10:11:41;;;;;;;8.88;2.17;;;;;;;-1.50;86.73;97110.81;5034327;28;20046;-72
2022/01/15 10:14:26;;;;;;;6.05;1.35;;;;;;;-1.52;85.86;97104.84;5036981;28;20142;-73
2022/01/15 10:16:52;;;;;;;7.75;1.27;;;;;;;-1.46;nan;97110.44;5009131;28;20385;-67
2022/01/15 10:19:36;;;;;;;7.38;1.80;;;;;;;-1.69;87.54;97103.69;5024849;28;20051;-73
2022/01/15 10:22:05;;;;;;;7.05;1.58;;;;;;;-1.29;86.96;97124.78;5019345;28;20053;-70
2022/01/15 10:24:31;;;;;;;6.20;1.33;;;;;;;-1.12;85.90;97122.41;5042425;28;20087;-70
2022/01/15 10:27:22;;;;;;;9.40;1.98;;;;;;;-1.09;86.55;97132.75;5036682;28;20081;-70
2022/01/15 10:30:05;;;;;;;6.65;1.60;;;;;;;-1.17;86.49;97135.22;5024990;28;20068;-70
2022/01/15 10:32:33;;;;;;;6.20;1.55;;;;;;;-1.44;85.04;97112.91;5031363;28;20052;-70
2022/01/15 10:35:00;;;;;;;5.60;1.15;;;;;;;-1.32;82.64;97138.28;5048392;28;20136;-69
2022/01/15 10:37:36;;;;;;;6.43;1.92;;;;;;;-1.38;83.15;97141.53;5039958;28;20081;-70
2022/01/15 10:40:08;;;;;;;6.25;1.60;;;;;;;-1.48;81.51;97132.72;5044394;28;20075;-69
2022/01/15 10:42:35;;;;;;;6.60;1.40;;;;;;;-1.28;81.37;97133.56;5039500;28;20041;-69
2022/01/15 10:45:08;;;;;;;6.10;1.50;;;;;;;-1.47;79.99;97142.34;5027700;28;20040;-69
2022/01/15 10:47:43;;;;;;;5.82;1.45;;;;;;;-1.28;80.13;97147.66;4996636;28;20046;-69
2022/01/15 10:50:18;;;;;;;5.30;1.35;;;;;;;-1.23;79.53;97137.47;5030904;28;20136;-69
2022/01/15 10:52:44;;;;;;;6.38;1.38;;;;;;;-1.08;78.74;97167.06;5012918;28;20056;-69
2022/01/15 10:55:12;;;;;;;6.25;1.88;;;;;;;-1.13;79.88;97165.78;4995288;28;20089;-68
2022/01/15 10:57:47;;;;;;;7.18;1.58;;;;;;;-1.25;80.92;97171.22;5029204;28;20045;-69
2022/01/15 11:00:51;;;;;;;6.03;1.40;;;;;;;-1.41;81.03;97181.53;5030214;28;20056;-68
2022/01/15 11:03:17;;;;;;;6.03;1.23;;;;;;;-1.72;81.79;97155.16;5017270;28;20049;-68
2022/01/15 11:05:45;;;;;;;8.88;1.45;;;;;;;-1.70;82.24;97186.78;5034310;28;20056;-69
2022/01/15 11:08:14;;;;;;;8.18;1.75;;;;;;;-1.76;83.59;97193.44;4984127;28;20199;-69
2022/01/15 11:10:54;;;;;;;9.23;1.30;;;;;;;-1.79;83.50;97209.63;5014950;28;20489;-68
2022/01/15 11:13:28;;;;;;;5.05;1.20;;;;;;;-1.83;83.89;97208.22;5065875;28;20048;-68
2022/01/15 11:15:56;;;;;;;7.45;1.35;;;;;;;-2.07;85.37;97179.41;5032532;28;20548;-69
2022/01/15 11:18:31;;;;;;;4.60;1.08;;;;;;;-1.86;85.81;97205.84;5032641;28;20088;-68
2022/01/15 11:21:00;;;;;;;6.20;1.30;;;;;;;-1.79;84.64;97230.81;5015737;28;20563;-68
2022/01/15 11:23:27;;;;;;;6.72;1.48;;;;;;;-1.78;84.73;97227.19;5032783;28;20117;-69
2022/01/15 11:25:55;;;;;;;4.43;1.10;;;;;;;-1.73;84.07;97235.56;4999430;28;20048;-68
2022/01/15 11:28:26;;;;;;;6.25;1.20;;;;;;;-1.66;83.50;97240.31;5032236;28;20041;-68
2022/01/15 11:30:57;;;;;;;4.85;1.23;;;;;;;-1.69;83.29;97249.38;5032483;28;20053;-68
2022/01/15 11:33:27;;;;;;;6.53;1.35;;;;;;;-1.92;83.68;97214.31;5032270;28;20049;-69
2022/01/15 11:35:53;;;;;;;4.70;1.10;;;;;;;-1.80;82.99;97239.72;5016168;28;20041;-69
2022/01/15 11:38:40;;;;;;;4.57;1.15;;;;;;;-1.72;82.68;97262.88;5000527;28;20060;-69
2022/01/15 11:41:26;;;;;;;5.22;1.30;;;;;;;-1.88;85.20;97251.94;5032919;28;20049;-68
2022/01/15 11:43:53;;;;;;;4.07;1.20;;;;;;;-2.00;85.03;97259.16;5015659;28;20056;-68
2022/01/15 11:46:29;;;;;;;6.20;1.63;;;;;;;-2.07;86.25;97289.75;5032023;28;20045;-69
2022/01/15 11:49:29;;;;;;;5.60;1.30;;;;;;;-2.07;86.79;97284.47;5032378;28;20053;-69
2022/01/15 11:51:56;;;;;;;5.85;1.23;;;;;;;-2.29;87.47;97254.53;5015543;28;20103;-68
2022/01/15 11:54:23;;;;;;;8.13;1.65;;;;;;;-2.16;87.38;97288.72;5031804;28;20139;-70
2022/01/15 11:56:49;;;;;;;7.65;1.50;;;;;;;-2.10;86.24;97292.66;5032402;28;20048;-68
2022/01/15 11:59:33;;;;;;;6.85;1.50;;;;;;;-2.19;86.60;97312.81;4983305;28;20041;-69
2022/01/15 12:02:06;;;;;;;8.02;1.90;;;;;;;-2.11;87.92;97318.28;5033911;28;20072;-67
2022/01/15 12:04:36;;;;;;;7.28;1.40;;;;;;;-2.20;87.62;97309.31;5052625;28;20107;-72
2022/01/15 12:07:05;;;;;;;23.25;2.58;;;;;;;-2.32;88.71;97291.81;5035149;28;20049;-73